Time;durP1;ratioP1;P1;durP2;ratioP2;P2;SDS_P1;SDS_P2;PMS_P1;PMS_P2;Temp;Humidity;BMP_temperature;BMP_pressure;BME280_temperature;BME280_humidity;BME280_pressure;Samples;Min_cycle;Max_cycle;Signal;HPM_P1;HPM_P2
2023/04/21 00:01:07;;;;;;;;;;;;;;;8.42;80.80;99360.11;105741;1261;61357;-74
2023/04/21 00:03:37;;;;;;;;;;;;;;;8.41;80.35;99361.98;105744;1262;61363;-72
2023/04/21 00:06:06;;;;;;;;;;;;;;;8.38;80.36;99363.50;105690;1255;76275;-77
2023/04/21 00:08:39;;;;;;;;;;;;;;;8.36;80.20;99356.26;105649;1260;68355;-79
2023/04/21 00:11:08;;;;;;;;;;;;;;;8.34;80.42;99360.48;105509;1260;74574;-80
2023/04/21 00:13:37;;;;;;;;;;;;;;;8.32;80.35;99359.27;105809;1256;62033;-78
2023/04/21 00:16:06;;;;;;;;;;;;;;;8.30;80.49;99364.38;105758;1259;61244;-79
2023/04/21 00:18:34;;;;;;;;;;;;;;;8.30;80.54;99361.86;105860;1258;75478;-78
2023/04/21 00:21:03;;;;;;;;;;;;;;;8.29;80.66;99362.14;105768;1260;68380;-77
2023/04/21 00:23:31;;;;;;;;;;;;;;;8.30;80.80;99354.56;105711;1260;74360;-78
2023/04/21 00:26:01;;;;;;;;;;;;;;;8.31;80.57;99355.33;105807;1254;61411;-78
2023/04/21 00:28:30;;;;;;;;;;;;;;;8.30;80.62;99354.20;105683;1260;61890;-77
2023/04/21 00:30:59;;;;;;;;;;;;;;;8.30;80.63;99348.30;105734;1261;74010;-77
2023/04/21 00:33:27;;;;;;;;;;;;;;;8.27;80.60;99350.64;105559;1256;68214;-75
2023/04/21 00:35:58;;;;;;;;;;;;;;;8.21;80.77;99352.04;105757;1260;73552;-74
2023/04/21 00:38:28;;;;;;;;;;;;;;;8.20;80.88;99347.52;105650;1256;61294;-76
2023/04/21 00:40:56;;;;;;;;;;;;;;;8.16;80.91;99349.11;105565;1260;61272;-77
2023/04/21 00:43:27;;;;;;;;;;;;;;;8.12;81.05;99351.61;105694;1261;76647;-74
2023/04/21 00:45:55;;;;;;;;;;;;;;;8.08;81.39;99354.59;105615;1260;70078;-76
2023/04/21 00:48:23;;;;;;;;;;;;;;;8.05;81.43;99352.83;105691;1262;73513;-72
2023/04/21 00:50:52;;;;;;;;;;;;;;;8.06;81.39;99353.31;105576;1261;61278;-74
2023/04/21 00:53:20;;;;;;;;;;;;;;;8.08;81.58;99355.62;105630;1269;61249;-74
2023/04/21 00:55:49;;;;;;;;;;;;;;;8.12;81.39;99358.77;105454;1261;75522;-75
2023/04/21 00:58:18;;;;;;;;;;;;;;;8.16;81.33;99359.70;105486;1266;68170;-76
2023/04/21 01:00:46;;;;;;;;;;;;;;;8.18;81.34;99353.60;105666;1258;74213;-76
2023/04/21 01:03:14;;;;;;;;;;;;;;;8.18;81.18;99354.47;105603;1261;61263;-76
2023/04/21 01:05:43;;;;;;;;;;;;;;;8.16;80.94;99356.17;105511;1258;61275;-75
2023/04/21 01:08:12;;;;;;;;;;;;;;;8.11;81.03;99350.52;105542;1262;76050;-74
2023/04/21 01:10:42;;;;;;;;;;;;;;;8.07;81.18;99349.50;105155;1262;648262;-75
2023/04/21 01:13:12;;;;;;;;;;;;;;;8.03;81.21;99349.67;105840;1255;74224;-73
2023/04/21 01:15:40;;;;;;;;;;;;;;;8.02;81.31;99350.19;105706;1260;61952;-78
2023/04/21 01:18:08;;;;;;;;;;;;;;;8.01;81.47;99347.08;105736;1260;61711;-79
2023/04/21 01:20:37;;;;;;;;;;;;;;;8.04;81.63;99347.52;105833;1259;74131;-73
2023/04/21 01:23:06;;;;;;;;;;;;;;;8.08;81.54;99341.98;105798;1260;69920;-79
2023/04/21 01:25:34;;;;;;;;;;;;;;;8.08;81.38;99336.98;105727;1260;72387;-79
2023/04/21 01:28:04;;;;;;;;;;;;;;;8.09;81.13;99336.23;105677;1258;61361;-77
2023/04/21 01:30:33;;;;;;;;;;;;;;;8.10;81.19;99328.98;105551;1261;61669;-75
2023/04/21 01:33:01;;;;;;;;;;;;;;;8.10;81.13;99325.12;105766;1256;75647;-74
2023/04/21 01:35:30;;;;;;;;;;;;;;;8.09;81.18;99326.34;105759;1260;69146;-73
2023/04/21 01:37:58;;;;;;;;;;;;;;;8.08;81.04;99327.55;105592;1262;74513;-74
2023/04/21 01:40:26;;;;;;;;;;;;;;;8.06;81.20;99322.05;105573;1260;61126;-74
2023/04/21 01:42:55;;;;;;;;;;;;;;;8.02;81.28;99323.42;105709;1261;61568;-76
2023/04/21 01:45:23;;;;;;;;;;;;;;;7.99;81.11;99317.85;105586;1258;74494;-78
2023/04/21 01:47:51;;;;;;;;;;;;;;;7.97;81.22;99323.85;105700;1258;68226;-77
2023/04/21 01:50:19;;;;;;;;;;;;;;;7.95;81.36;99322.14;105662;1259;73293;-76
2023/04/21 01:52:47;;;;;;;;;;;;;;;7.98;81.41;99318.64;105586;1262;62569;-77
2023/04/21 01:55:16;;;;;;;;;;;;;;;8.00;81.15;99316.33;105601;1260;61272;-77
2023/04/21 01:57:44;;;;;;;;;;;;;;;7.97;81.10;99311.02;105696;1261;73737;-76
2023/04/21 02:00:13;;;;;;;;;;;;;;;7.93;81.41;99309.55;105774;1260;69017;-77
2023/04/21 02:02:45;;;;;;;;;;;;;;;7.91;81.40;99306.58;105347;1262;74101;-75
2023/04/21 02:05:14;;;;;;;;;;;;;;;7.90;81.31;99302.94;105688;1272;62149;-76
2023/04/21 02:07:42;;;;;;;;;;;;;;;7.89;81.20;99301.80;105534;1257;61347;-76
2023/04/21 02:10:10;;;;;;;;;;;;;;;7.89;81.36;99303.12;105679;1261;76248;-74
2023/04/21 02:12:39;;;;;;;;;;;;;;;7.91;81.35;99301.21;105722;1261;69734;-76
2023/04/21 02:15:10;;;;;;;;;;;;;;;7.91;81.17;99298.91;105737;1259;73496;-78
2023/04/21 02:17:39;;;;;;;;;;;;;;;7.93;81.14;99296.74;105653;1258;62016;-78
2023/04/21 02:20:07;;;;;;;;;;;;;;;7.91;81.09;99297.15;105758;1261;61263;-77
2023/04/21 02:22:37;;;;;;;;;;;;;;;7.89;81.21;99289.78;105874;1261;76068;-78
2023/04/21 02:25:05;;;;;;;;;;;;;;;7.88;81.10;99284.35;105601;1262;68161;-78
2023/04/21 02:27:33;;;;;;;;;;;;;;;7.92;81.11;99283.04;105739;1269;73580;-78
2023/04/21 02:30:02;;;;;;;;;;;;;;;7.99;80.92;99285.40;105538;1261;62119;-78
2023/04/21 02:32:31;;;;;;;;;;;;;;;8.03;80.77;99285.98;105688;1257;61336;-77
2023/04/21 02:34:59;;;;;;;;;;;;;;;8.04;80.40;99280.98;105801;1256;75066;-77
2023/04/21 02:37:28;;;;;;;;;;;;;;;8.05;80.08;99279.89;105615;1261;68135;-76
2023/04/21 02:39:56;;;;;;;;;;;;;;;8.04;80.10;99274.02;105645;1258;74530;-76
2023/04/21 02:42:24;;;;;;;;;;;;;;;8.00;80.12;99274.16;105650;1257;61670;-76
2023/04/21 02:44:52;;;;;;;;;;;;;;;7.97;80.19;99277.02;105622;1258;61876;-76
2023/04/21 02:47:21;;;;;;;;;;;;;;;7.96;80.19;99275.65;105574;1257;74343;-76
2023/04/21 02:49:49;;;;;;;;;;;;;;;7.92;80.31;99274.05;105531;1258;68372;-77
2023/04/21 02:52:19;;;;;;;;;;;;;;;7.88;80.36;99274.35;105475;1263;72811;-77
2023/04/21 02:54:47;;;;;;;;;;;;;;;7.86;80.56;99275.66;105713;1258;61285;-75
2023/04/21 02:57:15;;;;;;;;;;;;;;;7.84;80.64;99275.94;105533;1260;61282;-76
2023/04/21 02:59:43;;;;;;;;;;;;;;;7.82;80.82;99279.33;105560;1257;75826;-76
2023/04/21 03:02:11;;;;;;;;;;;;;;;7.81;80.90;99277.39;105603;1262;67456;-75
2023/04/21 03:04:39;;;;;;;;;;;;;;;7.79;81.05;99274.08;105897;1260;73375;-74
2023/04/21 03:07:12;;;;;;;;;;;;;;;7.75;81.22;99274.18;105800;1256;62883;-75
2023/04/21 03:09:40;;;;;;;;;;;;;;;7.73;81.44;99275.42;105798;1260;61144;-76
2023/04/21 03:12:08;;;;;;;;;;;;;;;7.72;81.50;99272.48;105611;1262;75164;-75
2023/04/21 03:14:36;;;;;;;;;;;;;;;7.72;81.53;99274.56;105851;1258;69887;-75
2023/04/21 03:17:04;;;;;;;;;;;;;;;7.74;81.59;99271.91;105800;1261;72897;-75
2023/04/21 03:19:32;;;;;;;;;;;;;;;7.75;81.49;99274.38;105892;1257;61357;-75
2023/04/21 03:22:00;;;;;;;;;;;;;;;7.75;81.64;99278.73;105932;1256;61962;-74
2023/04/21 03:24:29;;;;;;;;;;;;;;;7.74;81.75;99278.34;105871;1258;75834;-74
2023/04/21 03:26:58;;;;;;;;;;;;;;;7.72;81.77;99282.96;105764;1257;67573;-74
2023/04/21 03:29:27;;;;;;;;;;;;;;;7.68;81.86;99280.44;105799;1260;72557;-73
2023/04/21 03:31:55;;;;;;;;;;;;;;;7.64;82.04;99282.17;105748;1256;62127;-73
2023/04/21 03:34:23;;;;;;;;;;;;;;;7.61;82.21;99283.68;105865;1257;61249;-73
2023/04/21 03:36:51;;;;;;;;;;;;;;;7.61;82.44;99284.27;105867;1260;76203;-75
2023/04/21 03:39:19;;;;;;;;;;;;;;;7.61;82.63;99283.67;105846;1257;68334;-75
2023/04/21 03:41:48;;;;;;;;;;;;;;;7.61;82.70;99283.19;105744;1260;74542;-74
2023/04/21 03:44:16;;;;;;;;;;;;;;;7.59;82.82;99284.38;105494;1257;61797;-75
2023/04/21 03:46:44;;;;;;;;;;;;;;;7.57;82.96;99283.27;105535;1260;61658;-74
2023/04/21 03:49:12;;;;;;;;;;;;;;;7.55;83.11;99284.88;105740;1260;76501;-76
2023/04/21 03:51:40;;;;;;;;;;;;;;;7.54;83.35;99284.86;105810;1260;69718;-74
2023/04/21 03:54:08;;;;;;;;;;;;;;;7.52;83.53;99284.63;105636;1257;73471;-76
2023/04/21 03:56:36;;;;;;;;;;;;;;;7.50;83.94;99285.23;105777;1260;61640;-74
2023/04/21 03:59:05;;;;;;;;;;;;;;;7.47;84.30;99280.86;105844;1261;61258;-76
2023/04/21 04:01:33;;;;;;;;;;;;;;;7.49;84.38;99281.64;105801;1260;75403;-75
2023/04/21 04:04:01;;;;;;;;;;;;;;;7.52;84.67;99284.91;105828;1259;68759;-75
2023/04/21 04:06:31;;;;;;;;;;;;;;;7.55;84.50;99279.28;105795;1259;73503;-76
2023/04/21 04:09:03;;;;;;;;;;;;;;;7.59;84.56;99281.98;105824;1258;62268;-75
2023/04/21 04:11:31;;;;;;;;;;;;;;;7.61;84.62;99277.14;105829;1257;61308;-75
2023/04/21 04:13:59;;;;;;;;;;;;;;;7.62;84.62;99276.63;105848;1254;75476;-79
2023/04/21 04:16:28;;;;;;;;;;;;;;;7.62;84.66;99280.33;105686;1259;68546;-74
2023/04/21 04:18:57;;;;;;;;;;;;;;;7.64;84.68;99284.38;105666;1269;74434;-76
2023/04/21 04:21:26;;;;;;;;;;;;;;;7.68;84.57;99287.05;105663;1257;63862;-75
2023/04/21 04:23:54;;;;;;;;;;;;;;;7.71;84.46;99289.42;105699;1258;61811;-75
2023/04/21 04:26:23;;;;;;;;;;;;;;;7.73;84.40;99289.93;105640;1258;74885;-75
2023/04/21 04:28:52;;;;;;;;;;;;;;;7.76;84.14;99294.60;105714;1260;67364;-75
2023/04/21 04:31:21;;;;;;;;;;;;;;;7.79;84.20;99299.69;105776;1258;71976;-74
2023/04/21 04:33:50;;;;;;;;;;;;;;;7.80;84.07;99298.89;105673;1258;61324;-75
2023/04/21 04:36:22;;;;;;;;;;;;;;;7.83;83.91;99299.76;105448;1257;61380;-74
2023/04/21 04:38:50;;;;;;;;;;;;;;;7.90;83.83;99299.27;105816;1257;73839;-74
2023/04/21 04:41:19;;;;;;;;;;;;;;;7.97;83.49;99297.67;105760;1258;67808;-72
2023/04/21 04:43:48;;;;;;;;;;;;;;;8.03;82.89;99298.59;105692;1257;72600;-76
2023/04/21 04:46:16;;;;;;;;;;;;;;;8.08;82.87;99295.25;105704;1257;61523;-76
2023/04/21 04:48:44;;;;;;;;;;;;;;;8.11;82.36;99296.58;105273;1256;61752;-75
2023/04/21 04:51:12;;;;;;;;;;;;;;;8.15;82.10;99299.74;105691;1260;74755;-74
2023/04/21 04:53:40;;;;;;;;;;;;;;;8.19;81.70;99295.80;105515;1260;69676;-76
2023/04/21 04:56:08;;;;;;;;;;;;;;;8.24;81.82;99296.67;105578;1257;74264;-77
2023/04/21 04:58:36;;;;;;;;;;;;;;;8.26;81.62;99293.80;105714;1259;61401;-80
2023/04/21 05:01:14;;;;;;;;;;;;;;;8.25;81.42;99295.35;105849;1258;61857;-77
2023/04/21 05:03:43;;;;;;;;;;;;;;;8.27;81.24;99296.63;105680;1258;74402;-74
2023/04/21 05:06:12;;;;;;;;;;;;;;;8.32;81.06;99298.11;105897;1254;67664;-77
2023/04/21 05:08:41;;;;;;;;;;;;;;;8.32;80.89;99303.22;105747;1260;73220;-76
2023/04/21 05:11:09;;;;;;;;;;;;;;;8.33;80.80;99300.73;105586;1261;61404;-75
2023/04/21 05:13:37;;;;;;;;;;;;;;;8.37;80.89;99306.06;105737;1260;61317;-75
2023/04/21 05:16:08;;;;;;;;;;;;;;;8.39;80.61;99307.83;105700;1261;74676;-72
2023/04/21 05:18:37;;;;;;;;;;;;;;;8.42;80.59;99311.14;105727;1257;67704;-76
2023/04/21 05:21:05;;;;;;;;;;;;;;;8.45;80.43;99313.59;105752;1260;72014;-76
2023/04/21 05:23:33;;;;;;;;;;;;;;;8.49;80.44;99312.20;105751;1257;63690;-75
2023/04/21 05:26:01;;;;;;;;;;;;;;;8.52;80.32;99310.16;105754;1254;61667;-74
2023/04/21 05:28:32;;;;;;;;;;;;;;;8.57;80.44;99313.72;105185;1260;76202;-73
2023/04/21 05:31:00;;;;;;;;;;;;;;;8.59;80.00;99306.89;105630;1260;68995;-73
2023/04/21 05:33:30;;;;;;;;;;;;;;;8.61;79.79;99307.41;105701;1257;72690;-74
2023/04/21 05:35:59;;;;;;;;;;;;;;;8.64;79.92;99309.16;105768;1256;61954;-73
2023/04/21 05:38:28;;;;;;;;;;;;;;;8.67;79.71;99307.81;105719;1258;61389;-74
2023/04/21 05:40:57;;;;;;;;;;;;;;;8.71;79.54;99300.79;105676;1254;75696;-77
2023/04/21 05:43:25;;;;;;;;;;;;;;;8.76;79.32;99301.13;105755;1260;67875;-73
2023/04/21 05:45:53;;;;;;;;;;;;;;;8.80;79.16;99300.06;105735;1254;72459;-72
2023/04/21 05:48:22;;;;;;;;;;;;;;;8.86;78.93;99293.48;105654;1256;61356;-74
2023/04/21 05:50:50;;;;;;;;;;;;;;;8.89;78.11;99294.48;105075;1258;62044;-73
2023/04/21 05:53:18;;;;;;;;;;;;;;;8.93;77.52;99290.41;105520;1260;75402;-73
2023/04/21 05:55:46;;;;;;;;;;;;;;;8.98;77.77;99293.21;105709;1254;68161;-74
2023/04/21 05:58:14;;;;;;;;;;;;;;;9.01;77.44;99290.73;105777;1254;74258;-75
2023/04/21 06:00:42;;;;;;;;;;;;;;;9.05;77.41;99288.10;105660;1260;63384;-71
2023/04/21 06:03:11;;;;;;;;;;;;;;;9.09;77.53;99287.02;105922;1260;62757;-74
2023/04/21 06:05:39;;;;;;;;;;;;;;;9.14;77.33;99291.52;105855;1259;76027;-73
2023/04/21 06:08:08;;;;;;;;;;;;;;;9.15;77.28;99288.32;105709;1261;69424;-77
2023/04/21 06:10:36;;;;;;;;;;;;;;;9.16;77.38;99285.91;105533;1260;73268;-70
2023/04/21 06:13:04;;;;;;;;;;;;;;;9.17;77.51;99289.41;105846;1259;62006;-74
2023/04/21 06:15:32;;;;;;;;;;;;;;;9.20;77.23;99290.68;105864;1254;61523;-73
2023/04/21 06:18:00;;;;;;;;;;;;;;;9.24;77.20;99293.95;105778;1254;75969;-74
2023/04/21 06:20:29;;;;;;;;;;;;;;;9.30;77.11;99297.95;105789;1259;66534;-73
2023/04/21 06:22:57;;;;;;;;;;;;;;;9.38;77.10;99299.05;105740;1258;74162;-74
2023/04/21 06:25:25;;;;;;;;;;;;;;;9.44;76.97;99298.69;105768;1254;61384;-73
2023/04/21 06:27:53;;;;;;;;;;;;;;;9.51;76.72;99299.36;105693;1260;61208;-73
2023/04/21 06:30:21;;;;;;;;;;;;;;;9.57;77.08;99306.73;105617;1260;76051;-74
2023/04/21 06:32:49;;;;;;;;;;;;;;;9.62;77.02;99304.09;105607;1260;66204;-76
2023/04/21 06:35:19;;;;;;;;;;;;;;;9.68;76.60;99303.98;105687;1257;73288;-73
2023/04/21 06:37:47;;;;;;;;;;;;;;;9.76;76.54;99303.36;105807;1260;62541;-76
2023/04/21 06:40:15;;;;;;;;;;;;;;;9.85;76.05;99299.27;105761;1260;61251;-75
2023/04/21 06:42:43;;;;;;;;;;;;;;;9.96;75.29;99299.48;105748;1259;75889;-74
2023/04/21 06:45:11;;;;;;;;;;;;;;;10.08;75.03;99304.80;105805;1259;66476;-73
2023/04/21 06:47:39;;;;;;;;;;;;;;;10.19;74.46;99302.28;105759;1256;73417;-74
2023/04/21 06:50:07;;;;;;;;;;;;;;;10.28;74.12;99302.41;105675;1256;61423;-74
2023/04/21 06:52:37;;;;;;;;;;;;;;;10.35;73.24;99300.42;105671;1257;61171;-74
2023/04/21 06:55:05;;;;;;;;;;;;;;;10.41;72.16;99298.64;105483;1256;75982;-77
2023/04/21 06:57:33;;;;;;;;;;;;;;;10.47;71.35;99299.86;105561;1256;67611;-75
2023/04/21 07:00:04;;;;;;;;;;;;;;;10.51;70.65;99302.99;105722;1260;74095;-75
2023/04/21 07:02:32;;;;;;;;;;;;;;;10.55;70.12;99301.52;105824;1260;61193;-74
2023/04/21 07:05:01;;;;;;;;;;;;;;;10.58;69.47;99303.38;105723;1258;61262;-74
2023/04/21 07:07:29;;;;;;;;;;;;;;;10.62;68.77;99300.71;105761;1260;75563;-75
2023/04/21 07:09:57;;;;;;;;;;;;;;;10.65;68.95;99302.12;105514;1257;67473;-75
2023/04/21 07:12:25;;;;;;;;;;;;;;;10.69;68.61;99303.13;105779;1256;74200;-73
2023/04/21 07:14:53;;;;;;;;;;;;;;;10.73;68.36;99302.55;105617;1260;61253;-71
2023/04/21 07:17:21;;;;;;;;;;;;;;;10.77;67.61;99304.52;105757;1256;61311;-73
2023/04/21 07:19:49;;;;;;;;;;;;;;;10.83;66.66;99308.09;105420;1259;75513;-75
2023/04/21 07:22:17;;;;;;;;;;;;;;;10.89;66.15;99303.23;105772;1257;65602;-73
2023/04/21 07:24:45;;;;;;;;;;;;;;;10.96;65.60;99310.91;105106;1257;72628;-70
2023/04/21 07:27:18;;;;;;;;;;;;;;;11.04;65.47;99310.84;105521;1260;61261;-73
2023/04/21 07:29:46;;;;;;;;;;;;;;;11.11;64.00;99303.34;105736;1256;61292;-72
2023/04/21 07:32:14;;;;;;;;;;;;;;;11.21;63.65;99305.42;105719;1256;75499;-73
2023/04/21 07:34:45;;;;;;;;;;;;;;;11.31;63.62;99306.98;105574;1260;66237;-72
2023/04/21 07:37:13;;;;;;;;;;;;;;;11.41;63.12;99298.34;105714;1256;73315;-73
2023/04/21 07:39:41;;;;;;;;;;;;;;;11.51;62.51;99294.00;105573;1260;61334;-72
2023/04/21 07:42:09;;;;;;;;;;;;;;;11.59;61.12;99292.73;105491;1254;61366;-72
2023/04/21 07:44:38;;;;;;;;;;;;;;;11.63;60.53;99290.96;105766;1258;74452;-72
2023/04/21 07:47:05;;;;;;;;;;;;;;;11.66;60.39;99292.46;105660;1256;67449;-72
2023/04/21 07:49:34;;;;;;;;;;;;;;;11.69;60.63;99292.32;105757;1255;74150;-70
2023/04/21 07:52:02;;;;;;;;;;;;;;;11.73;60.77;99299.45;105743;1260;61347;-72
2023/04/21 07:54:30;;;;;;;;;;;;;;;11.78;60.54;99296.09;105709;1257;61381;-73
2023/04/21 07:57:00;;;;;;;;;;;;;;;11.81;59.88;99298.94;105839;1257;74115;-73
2023/04/21 07:59:28;;;;;;;;;;;;;;;11.83;59.43;99304.77;105523;1254;70241;-73
2023/04/21 08:01:56;;;;;;;;;;;;;;;11.82;58.93;99304.88;105552;1259;72727;-72
2023/04/21 08:04:24;;;;;;;;;;;;;;;11.82;58.93;99307.95;105762;1260;62250;-73
2023/04/21 08:06:53;;;;;;;;;;;;;;;11.80;58.59;99308.27;105863;1260;61161;-72
2023/04/21 08:09:21;;;;;;;;;;;;;;;11.79;59.15;99313.07;105695;1257;75211;-73
2023/04/21 08:11:50;;;;;;;;;;;;;;;11.82;59.09;99314.90;105826;1259;66931;-73
2023/04/21 08:14:17;;;;;;;;;;;;;;;11.86;59.37;99310.81;105704;1258;71696;-74
2023/04/21 08:16:46;;;;;;;;;;;;;;;11.92;59.11;99314.11;105490;1256;61261;-73
2023/04/21 08:19:14;;;;;;;;;;;;;;;11.97;59.05;99314.55;105815;1260;61193;-72
2023/04/21 08:21:42;;;;;;;;;;;;;;;12.00;59.45;99319.83;105764;1257;75554;-74
2023/04/21 08:24:10;;;;;;;;;;;;;;;12.05;59.65;99309.48;105178;1256;67821;-73
2023/04/21 08:26:38;;;;;;;;;;;;;;;12.06;59.29;99309.31;105661;1256;72324;-73
2023/04/21 08:29:09;;;;;;;;;;;;;;;12.03;59.61;99323.17;105774;1260;61273;-73
2023/04/21 08:31:38;;;;;;;;;;;;;;;12.01;59.55;99313.03;105728;1260;61524;-73
2023/04/21 08:34:06;;;;;;;;;;;;;;;12.00;59.94;99332.00;105616;1260;76092;-74
2023/04/21 08:36:34;;;;;;;;;;;;;;;11.99;60.10;99331.36;105545;1256;69563;-74
2023/04/21 08:39:02;;;;;;;;;;;;;;;11.99;60.68;99324.63;105925;1254;72867;-72
2023/04/21 08:41:30;;;;;;;;;;;;;;;12.02;61.00;99332.45;105326;1256;61948;-71
2023/04/21 08:43:59;;;;;;;;;;;;;;;12.02;61.18;99336.77;105678;1255;61257;-75
2023/04/21 08:46:27;;;;;;;;;;;;;;;12.07;61.76;99337.67;105652;1256;74510;-72
2023/04/21 08:48:58;;;;;;;;;;;;;;;12.11;61.14;99328.89;105674;1258;68676;-74
2023/04/21 08:51:26;;;;;;;;;;;;;;;12.10;61.45;99337.03;105564;1260;71082;-72
2023/04/21 08:53:54;;;;;;;;;;;;;;;12.10;61.73;99333.91;105563;1260;62211;-78
2023/04/21 08:56:23;;;;;;;;;;;;;;;12.08;61.76;99332.30;106024;1256;61337;-89
2023/04/21 08:58:51;;;;;;;;;;;;;;;12.12;62.33;99333.42;105542;1256;74384;-77
2023/04/21 09:01:19;;;;;;;;;;;;;;;12.15;61.74;99330.73;105757;1254;69594;-75
2023/04/21 09:03:47;;;;;;;;;;;;;;;12.19;61.97;99344.36;105741;1256;73768;-76
2023/04/21 09:06:16;;;;;;;;;;;;;;;12.21;62.48;99342.45;105808;1256;61196;-75
2023/04/21 09:08:57;;;;;;;;;;;;;;;12.20;62.68;99346.85;105924;1254;61285;-76
2023/04/21 09:11:25;;;;;;;;;;;;;;;12.21;63.52;99349.34;105380;1259;75997;-76
2023/04/21 09:13:53;;;;;;;;;;;;;;;12.20;63.63;99347.02;105751;1256;67880;-75
2023/04/21 09:16:21;;;;;;;;;;;;;;;12.15;64.09;99354.07;105711;1256;73168;-76
2023/04/21 09:18:50;;;;;;;;;;;;;;;12.16;64.73;99354.40;105714;1257;61289;-76
2023/04/21 09:21:19;;;;;;;;;;;;;;;12.19;64.31;99350.20;105675;1255;61430;-74
2023/04/21 09:23:48;;;;;;;;;;;;;;;12.21;64.21;99355.16;105931;1254;73665;-75
2023/04/21 09:26:16;;;;;;;;;;;;;;;12.20;64.08;99361.15;105773;1254;67579;-74
2023/04/21 09:28:45;;;;;;;;;;;;;;;12.17;63.82;99351.05;105747;1256;74494;-76
2023/04/21 09:31:15;;;;;;;;;;;;;;;12.15;63.70;99359.46;105559;1260;61365;-74
2023/04/21 09:33:43;;;;;;;;;;;;;;;12.11;64.12;99362.23;105707;1256;61266;-75
2023/04/21 09:36:26;;;;;;;;;;;;;;;12.07;63.72;99348.20;105843;1255;75584;-77
2023/04/21 09:39:01;;;;;;;;;;;;;;;12.09;64.28;99366.63;105779;1256;67686;-75
2023/04/21 09:41:49;;;;;;;;;;;;;;;12.10;63.55;99346.14;105640;1259;71666;-74
2023/04/21 09:44:17;;;;;;;;;;;;;;;12.05;63.01;99345.66;105184;1260;61389;-75
2023/04/21 09:46:47;;;;;;;;;;;;;;;12.03;64.23;99358.01;105997;1259;61188;-82
2023/04/21 09:49:18;;;;;;;;;;;;;;;12.01;64.45;99362.09;105962;1260;74054;-85
2023/04/21 09:51:46;;;;;;;;;;;;;;;11.89;65.14;99363.04;105894;1254;68606;-83
2023/04/21 09:54:18;;;;;;;;;;;;;;;11.83;65.67;99372.06;105948;1256;74480;-82
2023/04/21 09:56:50;;;;;;;;;;;;;;;11.81;66.01;99374.75;105845;1256;61316;-76
2023/04/21 09:59:19;;;;;;;;;;;;;;;11.80;65.48;99373.14;105706;1256;61425;-80
2023/04/21 10:01:50;;;;;;;;;;;;;;;11.76;65.66;99376.36;105754;1261;75072;-79
2023/04/21 10:04:18;;;;;;;;;;;;;;;11.72;65.76;99376.08;105715;1256;68850;-77
2023/04/21 10:06:47;;;;;;;;;;;;;;;11.65;65.62;99375.28;105548;1257;73344;-74
2023/04/21 10:09:15;;;;;;;;;;;;;;;11.56;65.88;99375.90;105772;1258;61327;-76
2023/04/21 10:11:43;;;;;;;;;;;;;;;11.49;66.00;99376.08;105927;1260;61665;-75
2023/04/21 10:14:11;;;;;;;;;;;;;;;11.46;66.34;99379.52;105893;1256;75911;-76
2023/04/21 10:16:40;;;;;;;;;;;;;;;11.48;66.83;99383.41;106093;1256;67656;-74
2023/04/21 10:19:24;;;;;;;;;;;;;;;11.51;67.08;99380.08;105797;1256;72418;-72
2023/04/21 10:21:58;;;;;;;;;;;;;;;11.52;66.39;99373.51;106039;1256;61379;-78
2023/04/21 10:24:27;;;;;;;;;;;;;;;11.58;66.15;99374.94;106010;1257;61212;-75
2023/04/21 10:26:58;;;;;;;;;;;;;;;11.67;65.56;99360.95;106147;1260;73903;-73
2023/04/21 10:29:30;;;;;;;;;;;;;;;11.76;64.27;99352.73;105758;1260;69146;-74
2023/04/21 10:32:37;;;;;;;;;;;;;;;11.84;64.11;99361.68;106042;1260;74086;-84
2023/04/21 10:35:07;;;;;;;;;;;;;;;11.93;64.44;99367.09;106139;1254;61240;-78
2023/04/21 10:37:35;;;;;;;;;;;;;;;12.03;63.80;99366.03;105738;1256;61269;-73
2023/04/21 10:40:08;;;;;;;;;;;;;;;12.09;62.94;99359.63;105571;1260;75253;-75
2023/04/21 10:42:36;;;;;;;;;;;;;;;12.12;61.96;99359.69;105705;1256;67891;-70
2023/04/21 10:45:08;;;;;;;;;;;;;;;12.13;62.57;99369.33;105866;1260;74268;-77
2023/04/21 10:47:44;;;;;;;;;;;;;;;12.16;62.69;99373.55;105812;1254;62031;-84
2023/04/21 10:50:13;;;;;;;;;;;;;;;12.21;62.27;99363.58;105841;1256;61156;-78
2023/04/21 10:53:05;;;;;;;;;;;;;;;12.22;61.99;99365.58;105926;1257;74509;-74
2023/04/21 10:55:32;;;;;;;;;;;;;;;12.25;62.57;99372.63;105750;1256;67715;-74
2023/04/21 10:58:01;;;;;;;;;;;;;;;12.30;62.49;99366.27;105797;1261;73289;-74
2023/04/21 11:00:29;;;;;;;;;;;;;;;12.38;62.45;99361.80;105745;1256;61280;-76
2023/04/21 11:02:58;;;;;;;;;;;;;;;12.47;61.87;99354.09;105692;1256;61734;-73
2023/04/21 11:05:30;;;;;;;;;;;;;;;12.60;61.57;99352.69;105817;1256;74414;-77
2023/04/21 11:08:05;;;;;;;;;;;;;;;12.73;61.14;99344.20;105816;1256;69785;-74
2023/04/21 11:10:45;;;;;;;;;;;;;;;12.82;59.32;99339.88;105804;1258;73587;-72
2023/04/21 11:13:13;;;;;;;;;;;;;;;12.93;59.15;99336.70;105746;1256;61386;-71
2023/04/21 11:15:51;;;;;;;;;;;;;;;13.01;57.79;99332.36;105860;1256;61386;-70
2023/04/21 11:18:19;;;;;;;;;;;;;;;13.08;58.16;99330.24;105731;1257;74812;-74
2023/04/21 11:20:47;;;;;;;;;;;;;;;13.18;58.13;99336.02;105634;1260;67787;-79
2023/04/21 11:23:17;;;;;;;;;;;;;;;13.20;57.62;99332.56;105745;1258;73192;-69
2023/04/21 11:25:45;;;;;;;;;;;;;;;13.21;57.33;99331.36;105312;1254;62419;-76
2023/04/21 11:28:19;;;;;;;;;;;;;;;13.24;56.49;99329.30;105876;1256;61268;-72
2023/04/21 11:30:49;;;;;;;;;;;;;;;13.28;56.92;99328.90;105766;1256;75178;-71
2023/04/21 11:33:18;;;;;;;;;;;;;;;13.32;56.97;99328.84;105937;1256;70974;-74
2023/04/21 11:35:46;;;;;;;;;;;;;;;13.42;57.44;99327.33;105949;1256;72595;-73
2023/04/21 11:38:15;;;;;;;;;;;;;;;13.49;57.30;99329.90;105110;1254;61135;-74
2023/04/21 11:40:46;;;;;;;;;;;;;;;13.56;55.99;99323.23;106148;1256;61543;-75
2023/04/21 11:43:14;;;;;;;;;;;;;;;13.56;55.37;99331.11;105718;1256;75297;-72
2023/04/21 11:45:42;;;;;;;;;;;;;;;13.53;55.71;99325.33;105753;1259;68699;-78
2023/04/21 11:48:16;;;;;;;;;;;;;;;13.54;55.96;99322.36;105736;1259;72186;-71
2023/04/21 11:50:48;;;;;;;;;;;;;;;13.59;56.23;99318.71;105844;1259;61630;-73
2023/04/21 11:53:16;;;;;;;;;;;;;;;13.63;56.08;99314.54;105240;1260;61280;-70
2023/04/21 11:55:44;;;;;;;;;;;;;;;13.65;55.82;99310.90;105288;1258;74900;-70
2023/04/21 11:58:15;;;;;;;;;;;;;;;13.62;55.80;99309.67;105566;1257;65820;-71
2023/04/21 12:00:44;;;;;;;;;;;;;;;13.63;56.59;99309.29;105697;1256;73591;-79
2023/04/21 12:03:12;;;;;;;;;;;;;;;13.69;56.57;99307.80;105565;1260;61198;-73
2023/04/21 12:05:40;;;;;;;;;;;;;;;13.71;56.22;99304.49;105643;1260;61632;-71
2023/04/21 12:08:13;;;;;;;;;;;;;;;13.72;56.15;99305.77;105348;1258;75534;-70
2023/04/21 12:10:43;;;;;;;;;;;;;;;13.75;56.00;99302.58;105730;1254;67914;-76
2023/04/21 12:13:12;;;;;;;;;;;;;;;13.78;55.79;99297.14;105654;1256;72781;-77
2023/04/21 12:15:40;;;;;;;;;;;;;;;13.80;55.54;99298.60;105736;1261;61280;-77
2023/04/21 12:18:11;;;;;;;;;;;;;;;13.80;55.79;99292.48;105508;1262;61991;-75
2023/04/21 12:20:47;;;;;;;;;;;;;;;13.86;55.66;99291.41;105674;1256;75128;-75
2023/04/21 12:23:16;;;;;;;;;;;;;;;13.95;55.28;99288.21;105632;1255;68862;-73
2023/04/21 12:25:45;;;;;;;;;;;;;;;14.05;55.33;99284.63;105614;1258;72467;-72
2023/04/21 12:28:14;;;;;;;;;;;;;;;14.17;55.10;99284.42;105193;1257;61466;-78
2023/04/21 12:30:43;;;;;;;;;;;;;;;14.23;54.38;99282.27;105520;1261;61210;-74
2023/04/21 12:33:11;;;;;;;;;;;;;;;14.26;54.33;99282.88;105646;1260;73994;-74
2023/04/21 12:35:40;;;;;;;;;;;;;;;14.36;54.50;99281.90;105812;1259;67385;-78
2023/04/21 12:38:08;;;;;;;;;;;;;;;14.44;54.55;99279.67;105712;1256;74617;-73
2023/04/21 12:40:36;;;;;;;;;;;;;;;14.45;54.07;99283.78;105733;1260;61270;-75
2023/04/21 12:43:04;;;;;;;;;;;;;;;14.44;53.59;99281.19;105206;1258;61849;-76
2023/04/21 12:45:32;;;;;;;;;;;;;;;14.53;52.95;99280.13;105928;1256;75592;-75
2023/04/21 12:48:00;;;;;;;;;;;;;;;14.60;52.34;99276.95;105612;1257;67447;-73
2023/04/21 12:50:29;;;;;;;;;;;;;;;14.66;51.39;99279.35;105301;1254;74462;-73
2023/04/21 12:52:57;;;;;;;;;;;;;;;14.67;50.74;99272.73;105960;1258;61352;-83